sensor_id;sensor_type;location;lat;lon;timestamp;P1;durP1;ratioP1;P2;durP2;ratioP2
57345;SDS011;43181;50.974;18.244;2022-08-03T00:00:49;18.60;;;13.50;;
57345;SDS011;43181;50.974;18.244;2022-08-03T00:03:34;19.60;;;13.10;;
57345;SDS011;43181;50.974;18.244;2022-08-03T00:06:18;18.40;;;12.90;;
57345;SDS011;43181;50.974;18.244;2022-08-03T00:09:02;21.40;;;13.70;;
57345;SDS011;43181;50.974;18.244;2022-08-03T00:11:49;18.90;;;11.20;;
57345;SDS011;43181;50.974;18.244;2022-08-03T00:14:33;17.90;;;12.80;;
57345;SDS011;43181;50.974;18.244;2022-08-03T00:17:18;23.60;;;14.80;;
57345;SDS011;43181;50.974;18.244;2022-08-03T00:20:03;18.10;;;13.40;;
57345;SDS011;43181;50.974;18.244;2022-08-03T00:22:48;21.00;;;14.00;;
57345;SDS011;43181;50.974;18.244;2022-08-03T00:25:33;17.90;;;12.50;;
57345;SDS011;43181;50.974;18.244;2022-08-03T00:28:18;18.00;;;12.40;;
57345;SDS011;43181;50.974;18.244;2022-08-03T00:31:02;17.80;;;12.40;;
57345;SDS011;43181;50.974;18.244;2022-08-03T00:33:46;20.10;;;13.20;;
57345;SDS011;43181;50.974;18.244;2022-08-03T00:36:30;19.70;;;13.50;;
57345;SDS011;43181;50.974;18.244;2022-08-03T00:39:14;19.10;;;12.50;;
57345;SDS011;43181;50.974;18.244;2022-08-03T00:42:04;22.80;;;14.40;;
57345;SDS011;43181;50.974;18.244;2022-08-03T00:44:50;19.70;;;14.40;;
57345;SDS011;43181;50.974;18.244;2022-08-03T00:47:34;22.80;;;14.40;;
57345;SDS011;43181;50.974;18.244;2022-08-03T00:50:19;25.40;;;16.20;;
57345;SDS011;43181;50.974;18.244;2022-08-03T00:53:06;23.50;;;15.50;;
57345;SDS011;43181;50.974;18.244;2022-08-03T00:55:50;23.80;;;15.20;;
57345;SDS011;43181;50.974;18.244;2022-08-03T00:58:35;21.90;;;13.90;;
57345;SDS011;43181;50.974;18.244;2022-08-03T01:01:19;20.90;;;14.00;;
57345;SDS011;43181;50.974;18.244;2022-08-03T01:04:03;22.30;;;15.00;;
57345;SDS011;43181;50.974;18.244;2022-08-03T01:09:57;23.80;;;15.10;;
57345;SDS011;43181;50.974;18.244;2022-08-03T01:16:05;25.00;;;15.70;;
57345;SDS011;43181;50.974;18.244;2022-08-03T01:25:36;21.10;;;13.80;;
57345;SDS011;43181;50.974;18.244;2022-08-03T01:28:55;20.80;;;13.50;;
57345;SDS011;43181;50.974;18.244;2022-08-03T01:31:51;21.80;;;14.90;;
57345;SDS011;43181;50.974;18.244;2022-08-03T01:34:44;25.00;;;15.70;;
57345;SDS011;43181;50.974;18.244;2022-08-03T01:37:34;25.20;;;16.40;;
57345;SDS011;43181;50.974;18.244;2022-08-03T01:40:22;20.40;;;14.30;;
57345;SDS011;43181;50.974;18.244;2022-08-03T01:43:08;21.50;;;13.60;;
57345;SDS011;43181;50.974;18.244;2022-08-03T01:45:55;21.20;;;13.90;;
57345;SDS011;43181;50.974;18.244;2022-08-03T01:48:40;26.50;;;16.00;;
57345;SDS011;43181;50.974;18.244;2022-08-03T01:51:25;22.60;;;15.60;;
57345;SDS011;43181;50.974;18.244;2022-08-03T01:54:11;26.10;;;15.30;;
57345;SDS011;43181;50.974;18.244;2022-08-03T01:56:59;22.50;;;15.90;;
57345;SDS011;43181;50.974;18.244;2022-08-03T01:59:44;22.80;;;15.20;;
57345;SDS011;43181;50.974;18.244;2022-08-03T02:02:31;25.80;;;16.60;;
57345;SDS011;43181;50.974;18.244;2022-08-03T02:05:15;24.10;;;16.00;;
57345;SDS011;43181;50.974;18.244;2022-08-03T02:08:02;24.50;;;15.70;;
57345;SDS011;43181;50.974;18.244;2022-08-03T02:10:48;24.60;;;15.80;;
57345;SDS011;43181;50.974;18.244;2022-08-03T02:13:33;24.40;;;15.70;;
57345;SDS011;43181;50.974;18.244;2022-08-03T02:16:17;25.90;;;16.10;;
57345;SDS011;43181;50.974;18.244;2022-08-03T02:19:03;21.70;;;15.30;;
57345;SDS011;43181;50.974;18.244;2022-08-03T02:21:49;22.70;;;15.50;;
57345;SDS011;43181;50.974;18.244;2022-08-03T02:24:36;23.20;;;16.10;;
57345;SDS011;43181;50.974;18.244;2022-08-03T02:27:23;24.60;;;16.60;;
57345;SDS011;43181;50.974;18.244;2022-08-03T02:30:09;23.10;;;15.60;;
57345;SDS011;43181;50.974;18.244;2022-08-03T02:32:54;22.90;;;15.30;;
57345;SDS011;43181;50.974;18.244;2022-08-03T02:35:40;23.00;;;14.40;;
57345;SDS011;43181;50.974;18.244;2022-08-03T02:38:27;22.80;;;15.00;;
57345;SDS011;43181;50.974;18.244;2022-08-03T02:41:15;20.60;;;14.10;;
57345;SDS011;43181;50.974;18.244;2022-08-03T02:44:01;21.40;;;13.80;;
57345;SDS011;43181;50.974;18.244;2022-08-03T02:46:52;22.40;;;14.10;;
57345;SDS011;43181;50.974;18.244;2022-08-03T02:49:39;23.80;;;15.00;;
57345;SDS011;43181;50.974;18.244;2022-08-03T02:52:24;22.30;;;14.10;;
57345;SDS011;43181;50.974;18.244;2022-08-03T02:55:11;23.80;;;14.80;;
57345;SDS011;43181;50.974;18.244;2022-08-03T02:57:57;23.40;;;14.60;;
57345;SDS011;43181;50.974;18.244;2022-08-03T03:00:42;20.80;;;13.90;;
57345;SDS011;43181;50.974;18.244;2022-08-03T03:03:27;23.90;;;15.30;;
57345;SDS011;43181;50.974;18.244;2022-08-03T03:06:12;23.50;;;15.60;;
57345;SDS011;43181;50.974;18.244;2022-08-03T03:08:56;24.10;;;16.00;;
57345;SDS011;43181;50.974;18.244;2022-08-03T03:11:42;24.10;;;15.20;;
57345;SDS011;43181;50.974;18.244;2022-08-03T03:14:27;22.40;;;14.60;;
57345;SDS011;43181;50.974;18.244;2022-08-03T03:17:12;23.70;;;14.30;;
57345;SDS011;43181;50.974;18.244;2022-08-03T03:19:57;23.70;;;15.30;;
57345;SDS011;43181;50.974;18.244;2022-08-03T03:22:42;25.60;;;16.90;;
57345;SDS011;43181;50.974;18.244;2022-08-03T03:25:28;23.80;;;15.90;;
57345;SDS011;43181;50.974;18.244;2022-08-03T03:28:13;29.40;;;18.00;;
57345;SDS011;43181;50.974;18.244;2022-08-03T03:30:58;24.90;;;15.90;;
57345;SDS011;43181;50.974;18.244;2022-08-03T03:33:43;24.70;;;15.70;;
57345;SDS011;43181;50.974;18.244;2022-08-03T03:36:27;23.40;;;15.00;;
57345;SDS011;43181;50.974;18.244;2022-08-03T03:39:11;26.80;;;15.90;;
57345;SDS011;43181;50.974;18.244;2022-08-03T03:41:56;24.90;;;15.50;;
57345;SDS011;43181;50.974;18.244;2022-08-03T03:44:40;24.20;;;16.10;;
57345;SDS011;43181;50.974;18.244;2022-08-03T03:47:24;23.60;;;14.90;;
57345;SDS011;43181;50.974;18.244;2022-08-03T03:50:08;23.80;;;15.60;;
57345;SDS011;43181;50.974;18.244;2022-08-03T03:52:53;23.40;;;16.20;;
57345;SDS011;43181;50.974;18.244;2022-08-03T03:55:37;27.40;;;17.60;;
57345;SDS011;43181;50.974;18.244;2022-08-03T03:58:23;25.10;;;16.40;;
57345;SDS011;43181;50.974;18.244;2022-08-03T04:01:07;26.50;;;16.40;;
57345;SDS011;43181;50.974;18.244;2022-08-03T04:03:51;25.50;;;17.10;;
57345;SDS011;43181;50.974;18.244;2022-08-03T04:06:35;24.00;;;15.60;;
57345;SDS011;43181;50.974;18.244;2022-08-03T04:09:38;23.40;;;15.60;;
57345;SDS011;43181;50.974;18.244;2022-08-03T04:12:43;26.30;;;16.70;;
57345;SDS011;43181;50.974;18.244;2022-08-03T04:15:28;25.70;;;15.60;;
57345;SDS011;43181;50.974;18.244;2022-08-03T04:18:14;26.60;;;17.00;;
57345;SDS011;43181;50.974;18.244;2022-08-03T04:21:08;27.10;;;16.90;;
57345;SDS011;43181;50.974;18.244;2022-08-03T04:23:55;23.80;;;16.20;;
57345;SDS011;43181;50.974;18.244;2022-08-03T04:26:42;24.90;;;16.50;;
57345;SDS011;43181;50.974;18.244;2022-08-03T04:29:27;28.30;;;18.30;;
57345;SDS011;43181;50.974;18.244;2022-08-03T04:32:12;27.10;;;17.30;;
57345;SDS011;43181;50.974;18.244;2022-08-03T04:34:57;27.20;;;16.10;;
57345;SDS011;43181;50.974;18.244;2022-08-03T04:37:42;25.40;;;16.70;;
57345;SDS011;43181;50.974;18.244;2022-08-03T04:40:34;24.90;;;16.50;;
57345;SDS011;43181;50.974;18.244;2022-08-03T04:43:19;25.10;;;16.40;;
57345;SDS011;43181;50.974;18.244;2022-08-03T04:46:04;25.00;;;15.80;;
57345;SDS011;43181;50.974;18.244;2022-08-03T04:48:50;22.30;;;14.90;;
57345;SDS011;43181;50.974;18.244;2022-08-03T04:51:34;25.20;;;15.90;;
57345;SDS011;43181;50.974;18.244;2022-08-03T04:54:21;21.00;;;15.10;;
57345;SDS011;43181;50.974;18.244;2022-08-03T04:57:06;26.60;;;15.80;;
57345;SDS011;43181;50.974;18.244;2022-08-03T04:59:53;21.70;;;15.00;;
57345;SDS011;43181;50.974;18.244;2022-08-03T05:02:39;21.10;;;14.50;;
57345;SDS011;43181;50.974;18.244;2022-08-03T05:05:23;21.50;;;14.00;;
57345;SDS011;43181;50.974;18.244;2022-08-03T05:08:07;22.30;;;15.50;;
57345;SDS011;43181;50.974;18.244;2022-08-03T05:10:51;22.60;;;15.50;;
57345;SDS011;43181;50.974;18.244;2022-08-03T05:13:36;25.30;;;16.40;;
57345;SDS011;43181;50.974;18.244;2022-08-03T05:16:20;23.00;;;16.40;;
57345;SDS011;43181;50.974;18.244;2022-08-03T05:19:03;24.90;;;17.10;;
57345;SDS011;43181;50.974;18.244;2022-08-03T05:21:48;22.00;;;14.10;;
57345;SDS011;43181;50.974;18.244;2022-08-03T05:24:32;21.50;;;15.50;;
57345;SDS011;43181;50.974;18.244;2022-08-03T05:27:16;21.20;;;14.80;;
57345;SDS011;43181;50.974;18.244;2022-08-03T05:30:02;21.70;;;15.30;;
57345;SDS011;43181;50.974;18.244;2022-08-03T05:32:46;20.80;;;15.40;;
57345;SDS011;43181;50.974;18.244;2022-08-03T05:35:31;17.50;;;12.50;;
57345;SDS011;43181;50.974;18.244;2022-08-03T05:38:18;21.60;;;15.20;;
57345;SDS011;43181;50.974;18.244;2022-08-03T05:41:02;18.10;;;13.30;;
57345;SDS011;43181;50.974;18.244;2022-08-03T05:43:47;18.80;;;13.90;;
57345;SDS011;43181;50.974;18.244;2022-08-03T05:46:31;21.10;;;15.20;;
57345;SDS011;43181;50.974;18.244;2022-08-03T05:49:15;18.90;;;14.20;;
57345;SDS011;43181;50.974;18.244;2022-08-03T05:51:59;19.60;;;14.40;;
57345;SDS011;43181;50.974;18.244;2022-08-03T05:54:43;19.20;;;14.30;;
57345;SDS011;43181;50.974;18.244;2022-08-03T05:57:27;22.90;;;15.80;;
57345;SDS011;43181;50.974;18.244;2022-08-03T06:00:11;22.10;;;15.30;;
57345;SDS011;43181;50.974;18.244;2022-08-03T06:02:56;22.90;;;15.50;;
57345;SDS011;43181;50.974;18.244;2022-08-03T06:05:40;21.10;;;15.50;;
57345;SDS011;43181;50.974;18.244;2022-08-03T06:08:24;20.80;;;15.60;;
57345;SDS011;43181;50.974;18.244;2022-08-03T06:11:08;19.30;;;14.50;;
57345;SDS011;43181;50.974;18.244;2022-08-03T06:13:53;22.10;;;15.30;;
57345;SDS011;43181;50.974;18.244;2022-08-03T06:16:37;19.20;;;14.80;;
57345;SDS011;43181;50.974;18.244;2022-08-03T06:19:21;20.90;;;15.00;;
57345;SDS011;43181;50.974;18.244;2022-08-03T06:22:06;17.00;;;13.40;;
57345;SDS011;43181;50.974;18.244;2022-08-03T06:24:50;18.40;;;14.20;;
57345;SDS011;43181;50.974;18.244;2022-08-03T06:27:34;16.80;;;13.60;;
57345;SDS011;43181;50.974;18.244;2022-08-03T06:30:22;16.50;;;11.80;;
57345;SDS011;43181;50.974;18.244;2022-08-03T06:33:06;13.90;;;12.00;;
57345;SDS011;43181;50.974;18.244;2022-08-03T06:35:50;17.00;;;12.80;;
57345;SDS011;43181;50.974;18.244;2022-08-03T06:38:34;14.10;;;11.90;;
57345;SDS011;43181;50.974;18.244;2022-08-03T06:41:18;14.40;;;11.50;;
57345;SDS011;43181;50.974;18.244;2022-08-03T06:44:03;16.20;;;12.80;;
57345;SDS011;43181;50.974;18.244;2022-08-03T06:46:47;16.90;;;12.80;;
57345;SDS011;43181;50.974;18.244;2022-08-03T06:49:31;14.30;;;12.40;;
57345;SDS011;43181;50.974;18.244;2022-08-03T06:52:15;14.70;;;12.40;;
57345;SDS011;43181;50.974;18.244;2022-08-03T06:54:59;14.30;;;12.00;;
57345;SDS011;43181;50.974;18.244;2022-08-03T06:57:43;14.40;;;12.40;;
57345;SDS011;43181;50.974;18.244;2022-08-03T07:00:27;11.90;;;9.90;;
57345;SDS011;43181;50.974;18.244;2022-08-03T07:03:13;12.70;;;11.00;;
57345;SDS011;43181;50.974;18.244;2022-08-03T07:05:57;13.40;;;11.00;;
57345;SDS011;43181;50.974;18.244;2022-08-03T07:08:42;12.60;;;10.40;;
57345;SDS011;43181;50.974;18.244;2022-08-03T07:11:26;10.00;;;8.90;;
57345;SDS011;43181;50.974;18.244;2022-08-03T07:14:11;10.60;;;9.40;;
57345;SDS011;43181;50.974;18.244;2022-08-03T07:16:55;11.00;;;9.50;;
57345;SDS011;43181;50.974;18.244;2022-08-03T07:19:39;10.10;;;9.00;;
57345;SDS011;43181;50.974;18.244;2022-08-03T07:22:23;11.00;;;9.60;;
57345;SDS011;43181;50.974;18.244;2022-08-03T07:25:07;9.30;;;8.30;;
57345;SDS011;43181;50.974;18.244;2022-08-03T07:27:52;12.20;;;9.00;;
57345;SDS011;43181;50.974;18.244;2022-08-03T07:30:36;11.40;;;9.10;;
57345;SDS011;43181;50.974;18.244;2022-08-03T07:33:20;8.80;;;7.60;;
57345;SDS011;43181;50.974;18.244;2022-08-03T07:36:04;9.50;;;8.00;;
57345;SDS011;43181;50.974;18.244;2022-08-03T07:38:48;10.10;;;8.50;;
57345;SDS011;43181;50.974;18.244;2022-08-03T07:41:35;8.70;;;7.80;;
57345;SDS011;43181;50.974;18.244;2022-08-03T07:44:20;9.30;;;7.60;;
57345;SDS011;43181;50.974;18.244;2022-08-03T07:47:04;8.40;;;7.40;;
57345;SDS011;43181;50.974;18.244;2022-08-03T07:49:48;8.60;;;7.70;;
57345;SDS011;43181;50.974;18.244;2022-08-03T07:52:33;7.60;;;6.90;;
57345;SDS011;43181;50.974;18.244;2022-08-03T07:55:32;8.20;;;7.40;;
57345;SDS011;43181;50.974;18.244;2022-08-03T07:58:17;7.90;;;7.10;;
57345;SDS011;43181;50.974;18.244;2022-08-03T08:01:02;9.00;;;7.00;;
57345;SDS011;43181;50.974;18.244;2022-08-03T08:03:49;7.20;;;6.50;;
57345;SDS011;43181;50.974;18.244;2022-08-03T08:06:34;7.80;;;7.10;;
57345;SDS011;43181;50.974;18.244;2022-08-03T08:09:18;7.40;;;6.70;;
57345;SDS011;43181;50.974;18.244;2022-08-03T08:12:05;6.70;;;6.00;;
57345;SDS011;43181;50.974;18.244;2022-08-03T08:14:50;7.30;;;6.70;;
57345;SDS011;43181;50.974;18.244;2022-08-03T08:18:08;7.70;;;6.40;;
57345;SDS011;43181;50.974;18.244;2022-08-03T08:20:46;7.00;;;6.30;;
57345;SDS011;43181;50.974;18.244;2022-08-03T08:23:30;7.40;;;5.90;;
57345;SDS011;43181;50.974;18.244;2022-08-03T08:26:14;6.50;;;5.90;;
57345;SDS011;43181;50.974;18.244;2022-08-03T08:28:58;5.20;;;4.70;;
57345;SDS011;43181;50.974;18.244;2022-08-03T08:31:42;6.10;;;5.50;;
57345;SDS011;43181;50.974;18.244;2022-08-03T08:34:26;6.50;;;5.80;;
57345;SDS011;43181;50.974;18.244;2022-08-03T08:37:10;7.10;;;5.80;;
57345;SDS011;43181;50.974;18.244;2022-08-03T08:39:55;7.50;;;5.80;;
57345;SDS011;43181;50.974;18.244;2022-08-03T08:42:41;6.60;;;6.00;;
57345;SDS011;43181;50.974;18.244;2022-08-03T08:45:26;8.70;;;6.90;;
57345;SDS011;43181;50.974;18.244;2022-08-03T08:48:11;7.80;;;6.00;;
57345;SDS011;43181;50.974;18.244;2022-08-03T08:50:56;5.60;;;5.10;;
57345;SDS011;43181;50.974;18.244;2022-08-03T08:53:43;8.10;;;5.60;;
57345;SDS011;43181;50.974;18.244;2022-08-03T08:56:29;6.70;;;5.80;;
57345;SDS011;43181;50.974;18.244;2022-08-03T08:59:15;5.90;;;5.40;;
57345;SDS011;43181;50.974;18.244;2022-08-03T09:02:00;5.60;;;5.10;;
57345;SDS011;43181;50.974;18.244;2022-08-03T09:04:44;5.90;;;4.80;;
57345;SDS011;43181;50.974;18.244;2022-08-03T09:07:31;5.40;;;4.80;;
57345;SDS011;43181;50.974;18.244;2022-08-03T09:10:16;5.70;;;4.20;;
57345;SDS011;43181;50.974;18.244;2022-08-03T09:13:04;4.80;;;4.10;;
57345;SDS011;43181;50.974;18.244;2022-08-03T09:18:54;4.20;;;3.80;;
57345;SDS011;43181;50.974;18.244;2022-08-03T09:22:08;4.10;;;3.70;;
57345;SDS011;43181;50.974;18.244;2022-08-03T09:24:56;3.70;;;3.30;;
57345;SDS011;43181;50.974;18.244;2022-08-03T09:27:43;4.90;;;3.70;;
57345;SDS011;43181;50.974;18.244;2022-08-03T09:30:28;4.00;;;3.60;;
57345;SDS011;43181;50.974;18.244;2022-08-03T09:33:13;4.00;;;3.70;;
57345;SDS011;43181;50.974;18.244;2022-08-03T09:36:00;4.30;;;3.60;;
57345;SDS011;43181;50.974;18.244;2022-08-03T09:38:49;3.80;;;3.40;;
57345;SDS011;43181;50.974;18.244;2022-08-03T09:41:47;4.40;;;3.50;;
57345;SDS011;43181;50.974;18.244;2022-08-03T09:44:33;4.10;;;3.70;;
57345;SDS011;43181;50.974;18.244;2022-08-03T09:47:28;4.00;;;3.60;;
57345;SDS011;43181;50.974;18.244;2022-08-03T09:50:14;4.60;;;3.60;;
57345;SDS011;43181;50.974;18.244;2022-08-03T09:53:00;4.90;;;3.40;;
57345;SDS011;43181;50.974;18.244;2022-08-03T09:58:38;3.10;;;2.80;;
57345;SDS011;43181;50.974;18.244;2022-08-03T10:01:33;3.80;;;3.40;;
57345;SDS011;43181;50.974;18.244;2022-08-03T10:04:17;3.60;;;3.30;;
57345;SDS011;43181;50.974;18.244;2022-08-03T10:07:09;3.30;;;3.10;;
57345;SDS011;43181;50.974;18.244;2022-08-03T10:09:57;3.10;;;2.80;;
57345;SDS011;43181;50.974;18.244;2022-08-03T10:12:43;4.00;;;3.60;;
57345;SDS011;43181;50.974;18.244;2022-08-03T10:15:30;3.90;;;3.20;;
57345;SDS011;43181;50.974;18.244;2022-08-03T10:18:14;5.10;;;3.40;;
57345;SDS011;43181;50.974;18.244;2022-08-03T10:21:06;4.00;;;3.70;;
57345;SDS011;43181;50.974;18.244;2022-08-03T10:23:52;4.60;;;3.40;;
57345;SDS011;43181;50.974;18.244;2022-08-03T10:26:38;4.30;;;3.20;;
57345;SDS011;43181;50.974;18.244;2022-08-03T10:29:23;3.30;;;3.00;;
57345;SDS011;43181;50.974;18.244;2022-08-03T10:32:09;4.30;;;3.00;;
57345;SDS011;43181;50.974;18.244;2022-08-03T10:35:04;3.40;;;3.10;;
57345;SDS011;43181;50.974;18.244;2022-08-03T10:38:00;6.10;;;5.50;;
57345;SDS011;43181;50.974;18.244;2022-08-03T10:40:46;3.30;;;2.90;;
57345;SDS011;43181;50.974;18.244;2022-08-03T10:43:55;3.10;;;2.80;;
57345;SDS011;43181;50.974;18.244;2022-08-03T10:46:42;2.80;;;2.60;;
57345;SDS011;43181;50.974;18.244;2022-08-03T10:49:26;2.70;;;2.50;;
57345;SDS011;43181;50.974;18.244;2022-08-03T10:52:11;3.30;;;2.60;;
57345;SDS011;43181;50.974;18.244;2022-08-03T10:54:55;4.00;;;2.60;;
57345;SDS011;43181;50.974;18.244;2022-08-03T10:57:58;4.90;;;2.80;;
57345;SDS011;43181;50.974;18.244;2022-08-03T11:00:49;3.00;;;2.80;;
57345;SDS011;43181;50.974;18.244;2022-08-03T11:04:13;3.10;;;2.80;;
57345;SDS011;43181;50.974;18.244;2022-08-03T11:06:38;2.90;;;2.60;;
57345;SDS011;43181;50.974;18.244;2022-08-03T11:09:23;3.20;;;3.00;;
57345;SDS011;43181;50.974;18.244;2022-08-03T11:12:20;3.50;;;2.90;;
57345;SDS011;43181;50.974;18.244;2022-08-03T11:15:08;4.90;;;2.80;;
57345;SDS011;43181;50.974;18.244;2022-08-03T11:18:08;3.10;;;2.70;;
57345;SDS011;43181;50.974;18.244;2022-08-03T11:20:54;5.40;;;4.90;;
57345;SDS011;43181;50.974;18.244;2022-08-03T11:23:44;2.80;;;2.40;;
57345;SDS011;43181;50.974;18.244;2022-08-03T11:26:29;4.10;;;2.60;;
57345;SDS011;43181;50.974;18.244;2022-08-03T11:29:27;2.80;;;2.60;;
57345;SDS011;43181;50.974;18.244;2022-08-03T11:32:23;2.60;;;2.40;;
57345;SDS011;43181;50.974;18.244;2022-08-03T11:35:39;3.30;;;2.80;;
57345;SDS011;43181;50.974;18.244;2022-08-03T11:41:57;2.80;;;2.60;;
57345;SDS011;43181;50.974;18.244;2022-08-03T11:44:41;4.30;;;2.90;;
57345;SDS011;43181;50.974;18.244;2022-08-03T11:47:27;2.40;;;2.20;;
57345;SDS011;43181;50.974;18.244;2022-08-03T11:50:13;2.80;;;2.60;;
57345;SDS011;43181;50.974;18.244;2022-08-03T11:52:57;3.10;;;2.90;;
57345;SDS011;43181;50.974;18.244;2022-08-03T11:55:41;2.60;;;2.40;;
57345;SDS011;43181;50.974;18.244;2022-08-03T11:58:29;2.70;;;2.50;;
57345;SDS011;43181;50.974;18.244;2022-08-03T12:01:13;3.00;;;2.20;;
57345;SDS011;43181;50.974;18.244;2022-08-03T12:04:03;2.40;;;2.20;;
57345;SDS011;43181;50.974;18.244;2022-08-03T12:07:00;2.80;;;2.60;;
57345;SDS011;43181;50.974;18.244;2022-08-03T12:12:54;2.60;;;2.40;;
57345;SDS011;43181;50.974;18.244;2022-08-03T12:15:40;2.80;;;2.60;;
57345;SDS011;43181;50.974;18.244;2022-08-03T12:18:24;2.80;;;2.50;;
57345;SDS011;43181;50.974;18.244;2022-08-03T12:21:09;3.10;;;2.70;;
57345;SDS011;43181;50.974;18.244;2022-08-03T12:24:01;5.20;;;3.10;;
57345;SDS011;43181;50.974;18.244;2022-08-03T12:26:49;2.50;;;2.30;;
57345;SDS011;43181;50.974;18.244;2022-08-03T12:29:33;2.80;;;2.50;;
57345;SDS011;43181;50.974;18.244;2022-08-03T12:32:17;3.00;;;2.40;;
57345;SDS011;43181;50.974;18.244;2022-08-03T12:35:02;3.70;;;2.40;;
57345;SDS011;43181;50.974;18.244;2022-08-03T12:37:49;3.80;;;3.30;;
57345;SDS011;43181;50.974;18.244;2022-08-03T12:40:34;3.10;;;2.30;;
57345;SDS011;43181;50.974;18.244;2022-08-03T12:43:18;2.90;;;2.60;;
57345;SDS011;43181;50.974;18.244;2022-08-03T12:46:06;2.70;;;2.50;;
57345;SDS011;43181;50.974;18.244;2022-08-03T12:51:59;2.50;;;2.30;;
57345;SDS011;43181;50.974;18.244;2022-08-03T12:54:56;3.40;;;2.40;;
57345;SDS011;43181;50.974;18.244;2022-08-03T12:57:41;3.50;;;2.60;;
57345;SDS011;43181;50.974;18.244;2022-08-03T13:00:26;3.00;;;2.70;;
57345;SDS011;43181;50.974;18.244;2022-08-03T13:03:13;3.60;;;2.40;;
57345;SDS011;43181;50.974;18.244;2022-08-03T13:05:57;2.60;;;2.40;;
57345;SDS011;43181;50.974;18.244;2022-08-03T13:08:42;2.80;;;2.30;;
57345;SDS011;43181;50.974;18.244;2022-08-03T13:11:27;2.60;;;2.40;;
57345;SDS011;43181;50.974;18.244;2022-08-03T13:14:11;4.80;;;3.40;;
57345;SDS011;43181;50.974;18.244;2022-08-03T13:16:55;2.60;;;2.10;;
57345;SDS011;43181;50.974;18.244;2022-08-03T13:19:39;2.50;;;2.30;;
57345;SDS011;43181;50.974;18.244;2022-08-03T13:22:24;2.30;;;2.10;;
57345;SDS011;43181;50.974;18.244;2022-08-03T13:25:11;3.70;;;2.50;;
57345;SDS011;43181;50.974;18.244;2022-08-03T13:27:56;2.60;;;2.40;;
57345;SDS011;43181;50.974;18.244;2022-08-03T13:30:40;3.70;;;2.30;;
57345;SDS011;43181;50.974;18.244;2022-08-03T13:33:27;2.50;;;2.30;;
57345;SDS011;43181;50.974;18.244;2022-08-03T13:36:11;3.90;;;2.80;;
57345;SDS011;43181;50.974;18.244;2022-08-03T13:38:55;3.40;;;2.80;;
57345;SDS011;43181;50.974;18.244;2022-08-03T13:41:40;3.10;;;2.80;;
57345;SDS011;43181;50.974;18.244;2022-08-03T13:44:23;2.70;;;2.50;;
57345;SDS011;43181;50.974;18.244;2022-08-03T13:47:08;3.60;;;2.90;;
57345;SDS011;43181;50.974;18.244;2022-08-03T13:49:52;3.40;;;2.80;;
57345;SDS011;43181;50.974;18.244;2022-08-03T13:52:36;3.00;;;2.30;;
57345;SDS011;43181;50.974;18.244;2022-08-03T13:55:20;2.60;;;2.20;;
57345;SDS011;43181;50.974;18.244;2022-08-03T13:58:04;2.60;;;2.40;;
57345;SDS011;43181;50.974;18.244;2022-08-03T14:00:50;2.50;;;2.30;;
57345;SDS011;43181;50.974;18.244;2022-08-03T14:03:34;2.90;;;2.60;;
57345;SDS011;43181;50.974;18.244;2022-08-03T14:06:19;2.60;;;2.40;;
57345;SDS011;43181;50.974;18.244;2022-08-03T14:09:04;3.80;;;2.60;;
57345;SDS011;43181;50.974;18.244;2022-08-03T14:11:48;3.20;;;2.40;;
57345;SDS011;43181;50.974;18.244;2022-08-03T14:14:32;2.90;;;2.70;;
57345;SDS011;43181;50.974;18.244;2022-08-03T14:17:16;2.80;;;2.60;;
57345;SDS011;43181;50.974;18.244;2022-08-03T14:20:00;3.20;;;2.50;;
57345;SDS011;43181;50.974;18.244;2022-08-03T14:22:44;3.00;;;2.80;;
57345;SDS011;43181;50.974;18.244;2022-08-03T14:25:28;3.20;;;2.70;;
57345;SDS011;43181;50.974;18.244;2022-08-03T14:28:15;2.40;;;2.20;;
57345;SDS011;43181;50.974;18.244;2022-08-03T14:31:00;2.60;;;2.40;;
57345;SDS011;43181;50.974;18.244;2022-08-03T14:33:45;4.10;;;2.50;;
57345;SDS011;43181;50.974;18.244;2022-08-03T14:36:29;2.50;;;2.30;;
57345;SDS011;43181;50.974;18.244;2022-08-03T14:39:13;3.00;;;2.50;;
57345;SDS011;43181;50.974;18.244;2022-08-03T14:41:58;2.90;;;2.70;;
57345;SDS011;43181;50.974;18.244;2022-08-03T14:44:42;3.10;;;2.60;;
57345;SDS011;43181;50.974;18.244;2022-08-03T14:47:26;3.60;;;2.80;;
57345;SDS011;43181;50.974;18.244;2022-08-03T14:50:10;3.10;;;2.70;;
57345;SDS011;43181;50.974;18.244;2022-08-03T14:52:54;5.60;;;3.00;;
57345;SDS011;43181;50.974;18.244;2022-08-03T14:55:38;3.10;;;2.80;;
57345;SDS011;43181;50.974;18.244;2022-08-03T14:58:22;4.20;;;3.10;;
57345;SDS011;43181;50.974;18.244;2022-08-03T15:01:10;3.00;;;2.70;;
57345;SDS011;43181;50.974;18.244;2022-08-03T15:03:55;3.30;;;2.60;;
57345;SDS011;43181;50.974;18.244;2022-08-03T15:06:39;3.30;;;2.90;;
57345;SDS011;43181;50.974;18.244;2022-08-03T15:09:23;3.10;;;2.80;;
57345;SDS011;43181;50.974;18.244;2022-08-03T15:12:07;4.60;;;3.40;;
57345;SDS011;43181;50.974;18.244;2022-08-03T15:14:52;3.40;;;3.10;;
57345;SDS011;43181;50.974;18.244;2022-08-03T15:17:36;4.50;;;3.00;;
57345;SDS011;43181;50.974;18.244;2022-08-03T15:20:20;5.80;;;4.20;;
57345;SDS011;43181;50.974;18.244;2022-08-03T15:23:05;4.30;;;3.20;;
57345;SDS011;43181;50.974;18.244;2022-08-03T15:25:49;2.90;;;2.70;;
57345;SDS011;43181;50.974;18.244;2022-08-03T15:28:33;3.30;;;2.90;;
57345;SDS011;43181;50.974;18.244;2022-08-03T15:31:21;5.30;;;3.00;;
57345;SDS011;43181;50.974;18.244;2022-08-03T15:34:05;2.90;;;2.60;;
57345;SDS011;43181;50.974;18.244;2022-08-03T15:36:49;4.20;;;2.90;;
57345;SDS011;43181;50.974;18.244;2022-08-03T15:39:34;3.60;;;2.90;;
57345;SDS011;43181;50.974;18.244;2022-08-03T15:42:18;3.20;;;2.90;;
57345;SDS011;43181;50.974;18.244;2022-08-03T15:45:02;3.40;;;3.10;;
57345;SDS011;43181;50.974;18.244;2022-08-03T15:47:46;5.20;;;2.80;;
57345;SDS011;43181;50.974;18.244;2022-08-03T15:50:30;3.70;;;3.10;;
57345;SDS011;43181;50.974;18.244;2022-08-03T15:53:15;3.40;;;2.70;;
57345;SDS011;43181;50.974;18.244;2022-08-03T15:56:00;3.00;;;2.70;;
57345;SDS011;43181;50.974;18.244;2022-08-03T15:58:46;3.00;;;2.70;;
57345;SDS011;43181;50.974;18.244;2022-08-03T16:01:30;3.10;;;2.80;;
57345;SDS011;43181;50.974;18.244;2022-08-03T16:04:14;4.20;;;3.20;;
57345;SDS011;43181;50.974;18.244;2022-08-03T16:06:58;3.10;;;2.80;;
57345;SDS011;43181;50.974;18.244;2022-08-03T16:09:42;5.20;;;3.10;;
57345;SDS011;43181;50.974;18.244;2022-08-03T16:12:26;3.30;;;3.00;;
57345;SDS011;43181;50.974;18.244;2022-08-03T16:15:11;3.50;;;3.20;;
57345;SDS011;43181;50.974;18.244;2022-08-03T16:17:55;3.40;;;3.10;;
57345;SDS011;43181;50.974;18.244;2022-08-03T16:20:39;5.00;;;3.40;;
57345;SDS011;43181;50.974;18.244;2022-08-03T16:23:23;3.30;;;3.00;;
57345;SDS011;43181;50.974;18.244;2022-08-03T16:26:08;3.80;;;3.30;;
57345;SDS011;43181;50.974;18.244;2022-08-03T16:28:52;3.80;;;3.10;;
57345;SDS011;43181;50.974;18.244;2022-08-03T16:31:36;6.90;;;3.50;;
57345;SDS011;43181;50.974;18.244;2022-08-03T16:34:20;3.60;;;3.20;;
57345;SDS011;43181;50.974;18.244;2022-08-03T16:37:04;3.30;;;2.90;;
57345;SDS011;43181;50.974;18.244;2022-08-03T16:39:49;4.40;;;2.80;;
57345;SDS011;43181;50.974;18.244;2022-08-03T16:42:34;3.20;;;2.80;;